createdAt,value
2022-10-28T00:00:27.663Z,44.86
2022-10-28T00:02:55.066Z,44.92
2022-10-28T00:05:22.234Z,44.62
2022-10-28T00:07:48.938Z,44.44
2022-10-28T00:10:15.743Z,43.79
2022-10-28T00:12:43.058Z,44.64
2022-10-28T00:15:09.928Z,44.90
2022-10-28T00:17:36.654Z,44.72
2022-10-28T00:20:04.083Z,45.53
2022-10-28T00:22:30.889Z,44.80
2022-10-28T00:24:57.590Z,45.47
2022-10-28T00:27:24.351Z,44.70
2022-10-28T00:29:51.318Z,45.96
2022-10-28T00:32:18.055Z,47.46
2022-10-28T00:34:44.991Z,45.97
2022-10-28T00:37:11.697Z,47.85
2022-10-28T00:39:38.480Z,47.13
2022-10-28T00:42:07.258Z,45.72
2022-10-28T00:44:53.977Z,44.89
2022-10-28T00:47:40.371Z,44.81
2022-10-28T00:50:25.403Z,44.86
2022-10-28T00:52:56.819Z,45.00
2022-10-28T00:55:24.841Z,45.04
2022-10-28T00:57:56.700Z,45.46
2022-10-28T01:00:25.372Z,45.08
2022-10-28T01:02:52.275Z,45.01
2022-10-28T01:05:25.748Z,44.88
2022-10-28T01:07:57.328Z,44.98
2022-10-28T01:10:48.702Z,45.04
2022-10-28T01:14:07.396Z,44.76
2022-10-28T01:16:36.911Z,45.05
2022-10-28T01:19:50.185Z,44.35
2022-10-28T01:22:17.126Z,44.77
2022-10-28T01:25:23.773Z,45.22
2022-10-28T01:28:24.407Z,46.04
2022-10-28T01:31:36.406Z,47.27
2022-10-28T01:34:08.837Z,49.29
2022-10-28T01:36:45.248Z,49.18
2022-10-28T01:39:39.452Z,49.10
2022-10-28T01:42:12.027Z,48.20
2022-10-28T01:44:48.570Z,47.50
2022-10-28T01:47:37.359Z,46.62
2022-10-28T01:50:12.857Z,46.74
2022-10-28T01:52:41.308Z,46.54
2022-10-28T01:55:21.504Z,46.55
2022-10-28T01:57:51.328Z,46.80
2022-10-28T02:00:18.391Z,46.01
2022-10-28T02:02:48.162Z,45.97
2022-10-28T02:05:33.915Z,46.44
2022-10-28T02:08:11.224Z,46.57
2022-10-28T02:10:46.937Z,45.83
2022-10-28T02:13:15.311Z,46.64
2022-10-28T02:16:08.419Z,46.64
2022-10-28T02:19:01.435Z,46.92
2022-10-28T02:22:24.190Z,47.60
2022-10-28T02:25:02.751Z,46.63
2022-10-28T02:27:57.998Z,47.56
2022-10-28T02:31:06.087Z,46.23
2022-10-28T02:33:38.343Z,47.09
2022-10-28T02:36:12.456Z,46.56
2022-10-28T02:38:44.619Z,46.52
2022-10-28T02:41:25.306Z,47.04
2022-10-28T02:43:56.138Z,46.65
2022-10-28T02:46:26.995Z,46.74
2022-10-28T02:48:57.579Z,47.33
2022-10-28T02:51:30.185Z,46.68
2022-10-28T02:54:06.402Z,46.99
2022-10-28T02:56:39.680Z,46.84
2022-10-28T02:59:12.029Z,46.78
2022-10-28T03:01:39.984Z,46.83
2022-10-28T03:04:07.022Z,46.95
2022-10-28T03:06:33.810Z,47.23
2022-10-28T03:09:00.492Z,47.08
2022-10-28T03:11:27.546Z,46.36
2022-10-28T03:13:54.302Z,45.86
2022-10-28T03:16:21.135Z,45.84
2022-10-28T03:18:47.881Z,45.55
2022-10-28T03:21:14.615Z,45.66
2022-10-28T03:23:41.351Z,45.82
2022-10-28T03:26:08.291Z,46.18
2022-10-28T03:28:35.074Z,46.49
2022-10-28T03:31:01.991Z,46.08
2022-10-28T03:33:28.801Z,45.42
2022-10-28T03:35:55.695Z,46.03
2022-10-28T03:38:22.400Z,46.62
2022-10-28T03:40:50.215Z,46.18
2022-10-28T03:43:18.026Z,45.57
2022-10-28T03:45:44.744Z,46.01
2022-10-28T03:48:11.550Z,45.78
2022-10-28T03:50:38.223Z,45.92
2022-10-28T03:53:05.032Z,46.05
2022-10-28T03:55:31.847Z,45.84
2022-10-28T03:58:01.697Z,45.99
2022-10-28T04:00:29.782Z,45.78
2022-10-28T04:02:56.828Z,45.99
2022-10-28T04:05:23.791Z,45.66
2022-10-28T04:07:50.717Z,46.25
2022-10-28T04:10:17.579Z,45.73
2022-10-28T04:12:44.306Z,45.76
2022-10-28T04:15:11.177Z,46.09
2022-10-28T04:17:37.990Z,45.74
2022-10-28T04:20:05.325Z,45.65
2022-10-28T04:22:32.030Z,45.62
2022-10-28T04:25:17.603Z,45.93
2022-10-28T04:27:45.306Z,46.47
2022-10-28T04:30:13.098Z,46.49
2022-10-28T04:32:41.295Z,46.83
2022-10-28T04:35:09.531Z,51.14
2022-10-28T04:37:36.423Z,51.97
2022-10-28T04:40:04.445Z,49.51
2022-10-28T04:42:31.350Z,49.16
2022-10-28T04:44:58.039Z,49.65
2022-10-28T04:47:24.856Z,47.68
2022-10-28T04:49:51.714Z,46.64
2022-10-28T04:52:18.485Z,47.14
2022-10-28T04:54:45.511Z,47.96
2022-10-28T04:57:12.246Z,47.79
2022-10-28T04:59:39.144Z,47.87
2022-10-28T05:02:06.011Z,48.08
2022-10-28T05:04:32.882Z,47.78
2022-10-28T05:06:59.658Z,47.73
2022-10-28T05:09:26.624Z,48.13
2022-10-28T05:11:54.360Z,47.85
2022-10-28T05:14:21.064Z,46.60
2022-10-28T05:16:48.152Z,46.22
2022-10-28T05:19:14.904Z,46.50
2022-10-28T05:21:41.597Z,48.04
2022-10-28T05:24:08.752Z,46.74
2022-10-28T05:26:35.409Z,46.90
2022-10-28T05:29:02.093Z,48.37
2022-10-28T05:31:28.835Z,47.34
2022-10-28T05:33:55.669Z,47.13
2022-10-28T05:36:22.343Z,47.05
2022-10-28T05:38:49.762Z,47.46
2022-10-28T05:41:16.581Z,47.04
2022-10-28T05:43:43.397Z,47.16
2022-10-28T05:46:10.115Z,47.72
2022-10-28T05:48:36.924Z,46.55
2022-10-28T05:51:03.805Z,47.83
2022-10-28T05:53:30.788Z,49.28
2022-10-28T05:55:58.821Z,47.81
2022-10-28T05:58:25.559Z,47.91
2022-10-28T06:00:52.283Z,47.26
2022-10-28T06:03:19.172Z,47.03
2022-10-28T06:05:46.114Z,47.59
2022-10-28T06:08:13.943Z,46.68
2022-10-28T06:10:41.586Z,46.34
2022-10-28T06:13:07.703Z,46.98
2022-10-28T06:15:34.541Z,46.53
2022-10-28T06:18:01.311Z,47.60
2022-10-28T06:20:28.184Z,46.30
2022-10-28T06:22:56.142Z,46.95
2022-10-28T06:25:24.808Z,48.31
2022-10-28T06:27:55.911Z,50.42
2022-10-28T06:30:24.173Z,47.98
2022-10-28T06:32:51.114Z,49.23
2022-10-28T06:35:18.100Z,48.99
2022-10-28T06:37:44.761Z,48.53
2022-10-28T06:40:11.503Z,50.42
2022-10-28T06:42:38.160Z,48.63
2022-10-28T06:45:05.560Z,47.72
2022-10-28T06:47:39.070Z,48.44
2022-10-28T06:50:08.745Z,46.94
2022-10-28T06:52:35.567Z,46.67
2022-10-28T06:55:02.392Z,48.15
2022-10-28T06:57:29.424Z,47.46
2022-10-28T06:59:56.222Z,47.23
2022-10-28T07:02:23.280Z,46.62
2022-10-28T07:04:49.997Z,47.96
2022-10-28T07:07:16.902Z,46.70
2022-10-28T07:09:45.074Z,45.40
2022-10-28T07:12:12.363Z,48.66
2022-10-28T07:14:39.064Z,46.88
2022-10-28T07:17:05.897Z,46.46
2022-10-28T07:19:32.567Z,45.80
2022-10-28T07:21:59.342Z,45.40
2022-10-28T07:26:58.403Z,47.24
2022-10-28T07:29:25.162Z,45.88
2022-10-28T07:31:54.772Z,46.62
2022-10-28T07:34:26.762Z,45.15
2022-10-28T07:36:55.724Z,44.05
2022-10-28T07:39:22.972Z,45.98
2022-10-28T07:41:49.875Z,45.45
2022-10-28T07:44:16.826Z,44.48
2022-10-28T07:46:43.554Z,46.06
2022-10-28T07:49:10.242Z,45.83
2022-10-28T07:51:37.021Z,45.40
2022-10-28T07:54:03.890Z,43.50
2022-10-28T07:56:30.841Z,42.90
2022-10-28T07:58:57.602Z,43.29
2022-10-28T08:01:24.351Z,43.10
2022-10-28T08:03:51.362Z,41.69
2022-10-28T08:06:20.906Z,41.71
2022-10-28T08:08:52.695Z,41.77
2022-10-28T08:11:22.558Z,40.51
2022-10-28T08:13:50.154Z,40.77
2022-10-28T08:16:17.203Z,39.11
2022-10-28T08:18:45.782Z,39.54
2022-10-28T08:21:13.725Z,39.96
2022-10-28T08:23:41.578Z,38.93
2022-10-28T08:26:08.428Z,38.26
2022-10-28T08:28:35.128Z,40.63
2022-10-28T08:31:08.750Z,38.52
2022-10-28T08:33:38.153Z,39.78
2022-10-28T08:36:06.041Z,39.54
2022-10-28T08:38:32.938Z,40.05
2022-10-28T08:41:33.746Z,39.82
2022-10-28T08:44:23.508Z,39.28
2022-10-28T08:47:05.274Z,37.63
2022-10-28T08:49:36.494Z,37.60
2022-10-28T08:52:24.878Z,37.37
2022-10-28T08:55:14.032Z,37.66
2022-10-28T08:57:49.594Z,35.90
2022-10-28T09:00:29.166Z,36.74
2022-10-28T09:03:14.785Z,37.30
2022-10-28T09:05:44.825Z,37.39
2022-10-28T09:08:34.001Z,35.47
2022-10-28T09:11:17.312Z,35.01
2022-10-28T09:14:02.927Z,35.89
2022-10-28T09:16:38.714Z,36.51
2022-10-28T09:19:16.310Z,37.29
2022-10-28T09:22:14.419Z,34.81
2022-10-28T09:24:51.918Z,35.23
2022-10-28T09:27:33.771Z,35.21
2022-10-28T09:30:27.884Z,33.67
2022-10-28T09:33:28.666Z,33.30
2022-10-28T09:35:57.039Z,33.06
2022-10-28T09:38:32.833Z,32.84
2022-10-28T09:41:11.208Z,33.78
2022-10-28T09:43:46.158Z,34.99
2022-10-28T09:46:16.123Z,34.01
2022-10-28T09:48:52.097Z,34.14
2022-10-28T09:51:31.219Z,34.15
2022-10-28T09:53:59.600Z,34.07
2022-10-28T09:56:28.037Z,34.70
2022-10-28T09:58:58.101Z,32.75
2022-10-28T10:01:25.305Z,33.65
2022-10-28T10:03:52.525Z,34.01
2022-10-28T10:06:32.278Z,33.90
2022-10-28T10:09:00.222Z,32.99
2022-10-28T10:11:29.517Z,34.26
2022-10-28T10:13:59.652Z,33.03
2022-10-28T10:16:47.393Z,34.26
2022-10-28T10:19:14.328Z,33.62
2022-10-28T10:21:44.366Z,33.24
2022-10-28T10:24:24.424Z,33.47
2022-10-28T10:26:52.588Z,31.26
2022-10-28T10:29:20.692Z,31.69
2022-10-28T10:31:48.079Z,31.74
2022-10-28T10:34:24.533Z,31.05
2022-10-28T10:36:55.609Z,31.27
2022-10-28T10:39:42.732Z,31.97
2022-10-28T10:42:17.575Z,31.81
2022-10-28T10:45:01.492Z,29.80
2022-10-28T10:47:28.877Z,30.72
2022-10-28T10:50:20.187Z,30.97
2022-10-28T10:52:57.284Z,30.26
2022-10-28T10:55:37.040Z,31.11
2022-10-28T10:58:05.970Z,31.17
2022-10-28T11:00:37.572Z,30.88
2022-10-28T11:03:25.784Z,30.93
2022-10-28T11:06:18.268Z,31.01
2022-10-28T11:08:46.609Z,31.35
2022-10-28T11:11:31.557Z,32.35
2022-10-28T11:14:26.013Z,30.33
2022-10-28T11:17:03.128Z,30.52
2022-10-28T11:19:35.881Z,30.55
2022-10-28T11:22:11.875Z,29.34
2022-10-28T11:25:00.537Z,27.56
2022-10-28T11:27:55.460Z,27.12
2022-10-28T11:30:43.813Z,27.87
2022-10-28T11:33:34.379Z,27.60
2022-10-28T11:36:01.510Z,27.72
2022-10-28T11:39:00.032Z,28.00
2022-10-28T11:41:35.743Z,27.06
2022-10-28T11:44:11.945Z,27.14
2022-10-28T11:46:49.692Z,27.05
2022-10-28T11:49:19.387Z,24.53
2022-10-28T11:51:58.435Z,24.86
2022-10-28T11:54:45.035Z,25.19
2022-10-28T11:57:14.573Z,23.54
2022-10-28T12:00:09.198Z,23.97
2022-10-28T12:02:53.178Z,23.76
2022-10-28T12:05:38.192Z,23.83
2022-10-28T12:08:11.559Z,23.51
2022-10-28T12:10:56.803Z,23.93
2022-10-28T12:13:42.395Z,22.61
2022-10-28T12:16:36.566Z,23.29
2022-10-28T12:19:30.648Z,21.19
2022-10-28T12:22:05.813Z,20.79
2022-10-28T12:24:36.304Z,20.57
2022-10-28T12:27:17.095Z,20.38
2022-10-28T12:29:53.236Z,21.04
2022-10-28T12:32:28.730Z,20.75
2022-10-28T12:35:22.584Z,20.15
2022-10-28T12:37:55.596Z,20.03
2022-10-28T12:40:25.975Z,19.79
2022-10-28T12:43:08.052Z,19.57
2022-10-28T12:45:35.967Z,18.99
2022-10-28T12:48:24.195Z,19.30
2022-10-28T12:50:56.715Z,19.19
2022-10-28T12:53:35.855Z,19.19
2022-10-28T12:56:12.365Z,18.54
2022-10-28T12:59:09.046Z,18.58
2022-10-28T13:01:36.768Z,18.07
2022-10-28T13:04:04.011Z,17.75
2022-10-28T13:07:11.087Z,18.37
2022-10-28T13:09:54.227Z,17.80
2022-10-28T13:12:42.805Z,18.28
2022-10-28T13:15:37.704Z,18.12
2022-10-28T13:18:35.424Z,18.01
2022-10-28T13:21:06.792Z,18.17
2022-10-28T13:23:42.539Z,18.77
2022-10-28T13:26:37.868Z,18.42
2022-10-28T13:29:07.424Z,17.93
2022-10-28T13:31:44.261Z,17.60
2022-10-28T13:34:14.946Z,17.72
2022-10-28T13:36:44.449Z,18.44
2022-10-28T13:39:24.846Z,17.81
2022-10-28T13:42:14.796Z,18.08
2022-10-28T13:44:58.865Z,19.21
2022-10-28T13:47:39.428Z,19.10
2022-10-28T13:50:06.415Z,20.19
2022-10-28T13:52:47.219Z,21.05
2022-10-28T13:55:14.073Z,20.85
2022-10-28T13:57:46.539Z,22.06
2022-10-28T14:00:19.183Z,22.97
2022-10-28T14:03:00.048Z,22.12
2022-10-28T14:05:47.452Z,22.81
2022-10-28T14:08:26.228Z,23.25
2022-10-28T14:11:08.328Z,23.31
2022-10-28T14:13:41.744Z,22.79
2022-10-28T14:16:24.285Z,22.91
2022-10-28T14:19:00.444Z,23.38
2022-10-28T14:22:01.777Z,23.21
2022-10-28T14:24:35.203Z,23.80
2022-10-28T14:27:08.290Z,24.15
2022-10-28T14:29:57.102Z,23.78
2022-10-28T14:32:33.341Z,25.05
2022-10-28T14:35:20.377Z,25.31
2022-10-28T14:38:05.691Z,24.54
2022-10-28T14:40:44.624Z,24.29
2022-10-28T14:43:14.332Z,25.14
2022-10-28T14:45:48.440Z,25.00
2022-10-28T14:48:18.399Z,24.81
2022-10-28T14:50:47.969Z,24.80
2022-10-28T14:53:27.981Z,24.45
2022-10-28T14:56:08.100Z,24.19
2022-10-28T14:58:43.939Z,24.53
2022-10-28T15:01:16.902Z,24.96
2022-10-28T15:03:50.073Z,25.43
2022-10-28T15:06:39.433Z,25.47
2022-10-28T15:09:21.629Z,25.41
2022-10-28T15:11:56.163Z,25.91
2022-10-28T15:14:28.158Z,26.24
2022-10-28T15:16:55.395Z,26.36
2022-10-28T15:19:27.635Z,26.78
2022-10-28T15:22:12.626Z,26.90
2022-10-28T15:24:44.597Z,27.36
2022-10-28T15:27:15.349Z,27.79
2022-10-28T15:29:43.169Z,27.56
2022-10-28T15:32:22.210Z,27.86
2022-10-28T15:34:49.790Z,27.77
2022-10-28T15:37:21.547Z,27.49
2022-10-28T15:39:55.504Z,28.50
2022-10-28T15:42:37.907Z,28.83
2022-10-28T15:45:05.933Z,28.50
2022-10-28T15:47:35.200Z,29.63
2022-10-28T15:50:19.966Z,30.25
2022-10-28T15:52:54.743Z,31.18
2022-10-28T15:55:26.752Z,30.78
2022-10-28T15:58:22.607Z,30.66
2022-10-28T16:00:54.015Z,30.51
2022-10-28T16:03:41.559Z,30.36
2022-10-28T16:06:31.775Z,31.11
2022-10-28T16:09:12.159Z,31.21
2022-10-28T16:11:46.590Z,32.01
2022-10-28T16:14:33.406Z,32.41
2022-10-28T16:17:27.273Z,33.06
2022-10-28T16:19:59.157Z,33.46
2022-10-28T16:22:28.117Z,33.09
2022-10-28T16:24:55.996Z,32.71
2022-10-28T16:27:28.667Z,32.71
2022-10-28T16:29:55.505Z,33.00
2022-10-28T16:32:28.885Z,32.63
2022-10-28T16:34:57.931Z,32.73
2022-10-28T16:37:27.276Z,31.84
2022-10-28T16:39:54.881Z,33.05
2022-10-28T16:42:22.926Z,32.42
2022-10-28T16:44:51.196Z,33.25
2022-10-28T16:47:20.630Z,33.54
2022-10-28T16:49:54.326Z,33.85
2022-10-28T16:52:30.132Z,33.37
2022-10-28T16:54:57.719Z,33.74
2022-10-28T16:59:56.500Z,33.57
2022-10-28T17:02:32.162Z,33.62
2022-10-28T17:04:59.860Z,33.52
2022-10-28T17:07:28.767Z,33.97
2022-10-28T17:09:56.829Z,34.55
2022-10-28T17:12:26.896Z,33.92
2022-10-28T17:14:53.726Z,34.00
2022-10-28T17:17:20.680Z,34.61
2022-10-28T17:19:47.463Z,34.69
2022-10-28T17:22:14.365Z,34.65
2022-10-28T17:24:41.272Z,34.70
2022-10-28T17:27:08.221Z,34.08
2022-10-28T17:29:35.142Z,34.41
2022-10-28T17:32:02.641Z,34.80
2022-10-28T17:34:29.379Z,35.05
2022-10-28T17:36:56.608Z,34.85
2022-10-28T17:39:26.209Z,34.79
2022-10-28T17:41:53.719Z,35.50
2022-10-28T17:44:20.705Z,36.27
2022-10-28T17:46:51.489Z,35.62
2022-10-28T17:49:18.634Z,35.60
2022-10-28T17:51:45.424Z,35.79
2022-10-28T17:54:12.503Z,36.71
2022-10-28T17:56:42.220Z,36.62
2022-10-28T17:59:09.586Z,36.15
2022-10-28T18:01:36.900Z,36.08
2022-10-28T18:04:04.632Z,36.32
2022-10-28T18:06:32.138Z,36.43
2022-10-28T18:08:59.126Z,37.29
2022-10-28T18:11:27.523Z,37.05
2022-10-28T18:13:56.340Z,36.97
2022-10-28T18:16:27.566Z,37.01
2022-10-28T18:18:55.997Z,36.13
2022-10-28T18:21:25.176Z,36.34
2022-10-28T18:23:53.192Z,36.08
2022-10-28T18:26:20.926Z,36.79
2022-10-28T18:28:49.138Z,37.83
2022-10-28T18:31:18.978Z,37.24
2022-10-28T18:33:47.134Z,38.11
2022-10-28T18:36:16.858Z,38.24
2022-10-28T18:38:44.003Z,37.98
2022-10-28T18:41:16.212Z,37.15
2022-10-28T18:43:43.006Z,36.89
2022-10-28T18:46:10.422Z,37.05
2022-10-28T18:48:37.648Z,36.28
2022-10-28T18:51:06.866Z,36.47
2022-10-28T18:53:42.318Z,36.21
2022-10-28T18:56:17.289Z,35.89
2022-10-28T18:58:44.781Z,36.13
2022-10-28T19:01:17.206Z,35.83
2022-10-28T19:03:44.641Z,36.08
2022-10-28T19:06:13.862Z,35.62
2022-10-28T19:08:41.694Z,35.82
2022-10-28T19:11:10.711Z,35.84
2022-10-28T19:13:39.934Z,35.68
2022-10-28T19:16:09.060Z,35.88
2022-10-28T19:18:38.242Z,36.44
2022-10-28T19:21:12.782Z,37.70
2022-10-28T19:23:40.444Z,38.06
2022-10-28T19:26:08.001Z,37.62
2022-10-28T19:28:42.763Z,37.18
2022-10-28T19:31:12.884Z,36.78
2022-10-28T19:33:40.258Z,36.81
2022-10-28T19:36:25.549Z,37.34
2022-10-28T19:38:56.372Z,37.24
2022-10-28T19:41:25.624Z,37.10
2022-10-28T19:43:56.897Z,37.30
2022-10-28T19:46:26.246Z,37.70
2022-10-28T19:48:55.879Z,37.74
2022-10-28T19:51:31.288Z,37.10
2022-10-28T19:54:00.572Z,37.06
2022-10-28T19:56:28.637Z,36.56
2022-10-28T19:58:57.806Z,36.66
2022-10-28T20:01:26.503Z,36.94
2022-10-28T20:03:54.842Z,36.99
2022-10-28T20:06:24.199Z,37.12
2022-10-28T20:08:51.133Z,37.11
2022-10-28T20:11:24.720Z,38.15
2022-10-28T20:13:56.888Z,38.00
2022-10-28T20:16:25.320Z,38.21
2022-10-28T20:18:54.060Z,38.37
2022-10-28T20:21:22.531Z,38.36
2022-10-28T20:23:53.661Z,38.91
2022-10-28T20:26:25.993Z,41.85
2022-10-28T20:28:53.232Z,40.58
2022-10-28T20:31:22.559Z,40.23
2022-10-28T20:33:58.670Z,39.96
2022-10-28T20:36:27.120Z,39.12
2022-10-28T20:38:55.314Z,40.72
2022-10-28T20:41:23.599Z,41.08
2022-10-28T20:43:51.754Z,41.28
2022-10-28T20:46:20.288Z,42.64
2022-10-28T20:48:48.165Z,44.05
2022-10-28T20:51:15.589Z,44.94
2022-10-28T20:53:42.867Z,42.90
2022-10-28T20:56:23.992Z,43.44
2022-10-28T20:58:51.938Z,41.72
2022-10-28T21:01:22.034Z,42.30
2022-10-28T21:03:49.480Z,43.44
2022-10-28T21:06:17.229Z,41.88
2022-10-28T21:08:44.169Z,42.40
2022-10-28T21:11:13.363Z,44.61
2022-10-28T21:13:40.581Z,42.85
2022-10-28T21:16:09.810Z,43.62
2022-10-28T21:18:37.798Z,45.05
2022-10-28T21:21:05.246Z,45.88
2022-10-28T21:23:32.163Z,43.69
2022-10-28T21:26:01.164Z,43.38
2022-10-28T21:28:29.033Z,42.78
2022-10-28T21:31:02.498Z,42.19
2022-10-28T21:33:30.032Z,42.60
2022-10-28T21:35:58.200Z,42.20
2022-10-28T21:38:27.077Z,42.76
2022-10-28T21:41:11.589Z,42.53
2022-10-28T21:43:40.666Z,42.60
2022-10-28T21:46:07.917Z,43.00
2022-10-28T21:48:36.023Z,42.90
2022-10-28T21:51:08.580Z,42.80
2022-10-28T21:53:39.618Z,42.86
2022-10-28T21:56:16.680Z,43.15
2022-10-28T21:58:44.588Z,45.80
2022-10-28T22:01:12.836Z,45.56
2022-10-28T22:03:39.997Z,45.89
2022-10-28T22:06:07.395Z,46.54
2022-10-28T22:08:34.707Z,46.51
2022-10-28T22:11:16.855Z,46.18
2022-10-28T22:13:44.141Z,45.29
2022-10-28T22:16:13.126Z,44.37
2022-10-28T22:18:40.466Z,43.88
2022-10-28T22:21:15.608Z,44.87
2022-10-28T22:23:42.819Z,44.44
2022-10-28T22:26:13.146Z,46.13
2022-10-28T22:28:40.268Z,46.44
2022-10-28T22:31:09.392Z,46.17
2022-10-28T22:33:37.105Z,46.05
2022-10-28T22:36:06.497Z,45.61
2022-10-28T22:38:34.129Z,45.02
2022-10-28T22:41:11.319Z,44.36
2022-10-28T22:43:39.015Z,43.99
2022-10-28T22:46:06.107Z,45.23
2022-10-28T22:48:33.687Z,44.03
2022-10-28T22:51:00.902Z,44.12
2022-10-28T22:53:27.752Z,44.03
2022-10-28T22:55:55.582Z,43.49
2022-10-28T22:58:24.168Z,43.58
2022-10-28T23:00:51.321Z,43.48
2022-10-28T23:03:18.415Z,45.29
2022-10-28T23:05:45.669Z,47.47
2022-10-28T23:08:15.448Z,46.27
2022-10-28T23:10:43.085Z,46.01
2022-10-28T23:13:13.412Z,45.86
2022-10-28T23:15:40.304Z,45.50
2022-10-28T23:18:07.058Z,44.63
2022-10-28T23:20:35.747Z,44.63
2022-10-28T23:23:02.634Z,45.20
2022-10-28T23:25:29.633Z,44.77
2022-10-28T23:27:56.864Z,45.13
2022-10-28T23:30:24.185Z,44.84
2022-10-28T23:32:50.858Z,44.68
2022-10-28T23:35:17.639Z,44.96
2022-10-28T23:37:45.350Z,45.12
2022-10-28T23:40:12.309Z,46.78
2022-10-28T23:42:39.331Z,46.57
2022-10-28T23:45:07.020Z,46.90
2022-10-28T23:47:33.758Z,46.44
2022-10-28T23:50:00.509Z,45.43
2022-10-28T23:52:27.529Z,45.61
2022-10-28T23:54:54.252Z,44.59
2022-10-28T23:57:20.994Z,45.07
2022-10-28T23:59:47.854Z,46.25
